createdAt,value
2018-12-01T00:00:07.151Z,1009.35
2018-12-01T00:01:16.847Z,1009.31
2018-12-01T00:02:26.538Z,1009.3
2018-12-01T00:03:36.524Z,1009.27
2018-12-01T00:04:46.470Z,1009.24
2018-12-01T00:05:56.172Z,1009.22
2018-12-01T00:07:06.107Z,1009.24
2018-12-01T00:08:15.819Z,1009.22
2018-12-01T00:09:25.749Z,1009.25
2018-12-01T00:10:35.449Z,1009.18
2018-12-01T00:11:45.386Z,1009.19
2018-12-01T00:12:55.076Z,1009.19
2018-12-01T00:14:05.017Z,1009.13
2018-12-01T00:15:14.954Z,1009.14
2018-12-01T00:16:24.890Z,1009.13
2018-12-01T00:17:34.858Z,1009.14
2018-12-01T00:18:44.537Z,1009.09
2018-12-01T00:19:54.481Z,1009.13
2018-12-01T00:21:04.498Z,1009.17
2018-12-01T00:22:13.947Z,1009.14
2018-12-01T00:23:23.941Z,1009.12
2018-12-01T00:24:33.885Z,1009.14
2018-12-01T00:25:43.835Z,1009.1
2018-12-01T00:26:53.267Z,1009.13
2018-12-01T00:28:02.957Z,1009.09
2018-12-01T00:29:12.909Z,1009.1
2018-12-01T00:30:22.859Z,1009.09
2018-12-01T00:31:32.805Z,1009.14
2018-12-01T00:32:42.487Z,1009.1
2018-12-01T00:33:52.439Z,1009.08
2018-12-01T00:35:01.887Z,1009.09
2018-12-01T00:36:11.831Z,1009.11
2018-12-01T00:37:21.780Z,1009.07
2018-12-01T00:38:31.717Z,1009.09
2018-12-01T00:39:41.661Z,1009.12
2018-12-01T00:40:51.605Z,1009.09
2018-12-01T00:42:01.304Z,1009.06
2018-12-01T00:43:10.982Z,1009.08
2018-12-01T00:44:20.683Z,1009.06
2018-12-01T00:45:30.640Z,1009.03
2018-12-01T00:46:40.085Z,1009.02
2018-12-01T00:47:49.794Z,1009.02
2018-12-01T00:48:59.239Z,1008.99
2018-12-01T00:50:08.926Z,1009
2018-12-01T00:51:18.893Z,1008.96
2018-12-01T00:52:28.847Z,1008.98
2018-12-01T00:53:38.809Z,1009.02
2018-12-01T00:54:48.740Z,1009.05
2018-12-01T00:55:58.686Z,1009
2018-12-01T00:57:08.369Z,1009.01
2018-12-01T00:58:18.065Z,1009
2018-12-01T00:59:28.019Z,1009.01
2018-12-01T01:00:37.715Z,1009
2018-12-01T01:01:47.661Z,1008.96
2018-12-01T01:02:57.627Z,1008.93
2018-12-01T01:04:07.582Z,1008.9
2018-12-01T01:05:17.269Z,1008.95
2018-12-01T01:06:26.710Z,1009
2018-12-01T01:07:36.400Z,1009
2018-12-01T01:08:46.332Z,1008.92
2018-12-01T01:09:56.030Z,1008.94
2018-12-01T01:11:05.964Z,1008.93
2018-12-01T01:12:15.885Z,1008.97
2018-12-01T01:13:25.337Z,1008.99
2018-12-01T01:14:34.782Z,1008.99
2018-12-01T01:15:44.716Z,1009.02
2018-12-01T01:16:54.423Z,1008.97
2018-12-01T01:18:04.101Z,1008.98
2018-12-01T01:19:14.033Z,1009
2018-12-01T01:20:23.957Z,1008.99
2018-12-01T01:21:33.404Z,1008.97
2018-12-01T01:22:43.333Z,1008.94
2018-12-01T01:23:53.286Z,1008.98
2018-12-01T01:25:03.217Z,1008.96
2018-12-01T01:26:13.151Z,1008.95
2018-12-01T01:27:23.095Z,1009
2018-12-01T01:28:32.777Z,1009.04
2018-12-01T01:29:42.716Z,1009.07
2018-12-01T01:30:52.665Z,1009.06
2018-12-01T01:32:02.602Z,1009.1
2018-12-01T01:33:12.303Z,1009.07
2018-12-01T01:34:22.247Z,1009.03
2018-12-01T01:35:31.681Z,1009.05
2018-12-01T01:36:41.413Z,1009.05
2018-12-01T01:37:51.356Z,1009.06
2018-12-01T01:39:01.055Z,1008.99
2018-12-01T01:40:10.758Z,1008.99
2018-12-01T01:41:20.450Z,1008.93
2018-12-01T01:42:30.406Z,1008.93
2018-12-01T01:43:40.334Z,1008.99
2018-12-01T01:44:50.257Z,1009.01
2018-12-01T01:45:59.968Z,1009.09
2018-12-01T01:47:09.672Z,1009.07
2018-12-01T01:48:19.606Z,1009.12
2018-12-01T01:49:29.532Z,1009.08
2018-12-01T01:50:39.475Z,1009.05
2018-12-01T01:51:49.159Z,1009.04
2018-12-01T01:52:58.837Z,1009.09
2018-12-01T01:54:08.512Z,1009.03
2018-12-01T01:55:18.459Z,1009.06
2018-12-01T01:56:28.421Z,1009.12
2018-12-01T01:57:38.138Z,1009.06
2018-12-01T01:58:48.094Z,1009.04
2018-12-01T01:59:57.796Z,1009.06
2018-12-01T02:01:07.295Z,1009.06
2018-12-01T02:02:16.992Z,1009.02
2018-12-01T02:03:26.430Z,1009
2018-12-01T02:04:36.128Z,1009.01
2018-12-01T02:05:45.809Z,1008.99
2018-12-01T02:06:55.503Z,1009.03
2018-12-01T02:08:05.205Z,1009
2018-12-01T02:09:15.149Z,1008.93
2018-12-01T02:10:25.089Z,1008.92
2018-12-01T02:11:34.790Z,1008.93
2018-12-01T02:12:44.715Z,1008.87
2018-12-01T02:13:54.674Z,1008.84
2018-12-01T02:15:04.119Z,1008.8
2018-12-01T02:16:13.817Z,1008.76
2018-12-01T02:17:23.511Z,1008.74
2018-12-01T02:18:33.487Z,1008.8
2018-12-01T02:19:42.912Z,1008.79
2018-12-01T02:20:52.860Z,1008.78
2018-12-01T02:22:02.803Z,1008.79
2018-12-01T02:23:12.491Z,1008.74
2018-12-01T02:24:22.431Z,1008.8
2018-12-01T02:25:32.363Z,1008.81
2018-12-01T02:26:42.314Z,1008.85
2018-12-01T02:27:52.275Z,1008.77
2018-12-01T02:29:02.215Z,1008.71
2018-12-01T02:30:12.154Z,1008.67
2018-12-01T02:31:22.152Z,1008.73
2018-12-01T02:32:32.123Z,1008.74
2018-12-01T02:33:42.095Z,1008.71
2018-12-01T02:34:52.051Z,1008.64
2018-12-01T02:36:01.549Z,1008.65
2018-12-01T02:37:11.540Z,1008.69
2018-12-01T02:38:21.509Z,1008.78
2018-12-01T02:39:31.224Z,1008.8
2018-12-01T02:40:40.735Z,1008.84
2018-12-01T02:41:50.423Z,1008.79
2018-12-01T02:43:00.363Z,1008.81
2018-12-01T02:44:09.811Z,1008.84
2018-12-01T02:45:19.502Z,1008.85
2018-12-01T02:46:29.208Z,1008.88
2018-12-01T02:47:38.397Z,1008.85
2018-12-01T02:48:48.084Z,1008.82
2018-12-01T02:49:58.028Z,1008.8
2018-12-01T02:51:07.720Z,1008.79
2018-12-01T02:52:17.425Z,1008.81
2018-12-01T02:53:27.358Z,1008.84
2018-12-01T02:54:37.313Z,1008.87
2018-12-01T02:55:47.238Z,1008.94
2018-12-01T02:56:56.422Z,1008.91
2018-12-01T02:58:06.374Z,1008.9
2018-12-01T02:59:16.068Z,1008.93
2018-12-01T03:00:26.007Z,1008.99
2018-12-01T03:01:35.951Z,1009.01
2018-12-01T03:02:45.901Z,1009.01
2018-12-01T03:03:55.586Z,1008.97
2018-12-01T03:05:05.523Z,1008.96
2018-12-01T03:06:15.225Z,1008.97
2018-12-01T03:07:25.152Z,1008.96
2018-12-01T03:08:35.094Z,1008.94
2018-12-01T03:09:45.033Z,1008.93
2018-12-01T03:10:54.725Z,1008.94
2018-12-01T03:12:04.667Z,1008.95
2018-12-01T03:13:14.606Z,1008.92
2018-12-01T03:14:24.284Z,1008.94
2018-12-01T03:15:33.959Z,1008.94
2018-12-01T03:16:43.689Z,1008.97
2018-12-01T03:17:53.369Z,1009
2018-12-01T03:19:03.309Z,1009
2018-12-01T03:20:13.243Z,1008.96
2018-12-01T03:21:22.920Z,1008.96
2018-12-01T03:22:32.603Z,1008.97
2018-12-01T03:23:42.539Z,1008.91
2018-12-01T03:24:52.483Z,1008.98
2018-12-01T03:26:02.409Z,1008.99
2018-12-01T03:27:12.349Z,1008.98
2018-12-01T03:28:22.280Z,1008.99
2018-12-01T03:29:32.217Z,1008.93
2018-12-01T03:30:41.889Z,1008.95
2018-12-01T03:31:51.597Z,1008.93
2018-12-01T03:33:01.553Z,1008.93
2018-12-01T03:34:11.241Z,1008.95
2018-12-01T03:35:20.984Z,1008.91
2018-12-01T03:36:30.673Z,1008.88
2018-12-01T03:37:40.361Z,1008.87
2018-12-01T03:38:50.045Z,1008.92
2018-12-01T03:39:59.729Z,1008.93
2018-12-01T03:41:09.417Z,1008.92
2018-12-01T03:42:19.347Z,1008.98
2018-12-01T03:43:29.287Z,1009.02
2018-12-01T03:44:39.223Z,1009.05
2018-12-01T03:45:49.156Z,1008.98
2018-12-01T03:46:59.091Z,1009.01
2018-12-01T03:48:08.781Z,1008.99
2018-12-01T03:49:18.722Z,1008.95
2018-12-01T03:50:29.164Z,1008.96
2018-12-01T03:51:38.348Z,1008.98
2018-12-01T03:52:48.271Z,1008.98
2018-12-01T03:53:57.966Z,1008.96
2018-12-01T03:55:07.645Z,1008.97
2018-12-01T03:56:17.581Z,1009.04
2018-12-01T03:57:27.518Z,1009.12
2018-12-01T03:58:36.948Z,1009.09
2018-12-01T03:59:46.642Z,1009.07
2018-12-01T04:00:56.338Z,1008.99
2018-12-01T04:02:06.301Z,1008.94
2018-12-01T04:03:16.234Z,1008.96
2018-12-01T04:04:25.410Z,1008.94
2018-12-01T04:05:35.345Z,1008.97
2018-12-01T04:06:45.047Z,1008.96
2018-12-01T04:07:54.465Z,1009.01
2018-12-01T04:09:04.162Z,1008.9
2018-12-01T04:10:14.106Z,1008.91
2018-12-01T04:11:23.807Z,1008.93
2018-12-01T04:12:33.756Z,1008.95
2018-12-01T04:13:43.445Z,1008.96
2018-12-01T04:14:52.874Z,1008.95
2018-12-01T04:16:02.316Z,1008.96
2018-12-01T04:17:12.260Z,1009.03
2018-12-01T04:18:21.712Z,1008.98
2018-12-01T04:19:31.419Z,1008.97
2018-12-01T04:20:40.864Z,1009.04
2018-12-01T04:21:50.570Z,1009
2018-12-01T04:23:00.508Z,1008.98
2018-12-01T04:24:10.260Z,1009.01
2018-12-01T04:25:20.192Z,1009
2018-12-01T04:26:30.129Z,1009.02
2018-12-01T04:27:39.570Z,1009.02
2018-12-01T04:28:49.498Z,1009.01
2018-12-01T04:29:59.182Z,1009.06
2018-12-01T04:31:08.617Z,1009.05
2018-12-01T04:32:18.551Z,1009.02
2018-12-01T04:33:28.481Z,1009.1
2018-12-01T04:34:38.158Z,1009.06
2018-12-01T04:35:48.092Z,1009.05
2018-12-01T04:36:58.034Z,1009.06
2018-12-01T04:38:07.965Z,1009.05
2018-12-01T04:39:17.666Z,1009.08
2018-12-01T04:40:27.331Z,1009.09
2018-12-01T04:41:37.009Z,1009.02
2018-12-01T04:42:46.690Z,1008.96
2018-12-01T04:43:56.632Z,1009
2018-12-01T04:45:06.304Z,1009
2018-12-01T04:46:16.236Z,1009.01
2018-12-01T04:47:26.174Z,1009.09
2018-12-01T04:48:35.876Z,1009.06
2018-12-01T04:49:45.555Z,1009.02
2018-12-01T04:50:54.982Z,1009.1
2018-12-01T04:52:04.218Z,1009.08
2018-12-01T04:53:13.899Z,1009.08
2018-12-01T04:54:23.823Z,1009.05
2018-12-01T04:55:33.257Z,1009.08
2018-12-01T04:56:42.691Z,1009.06
2018-12-01T04:57:52.132Z,1009.13
2018-12-01T04:59:02.069Z,1009.11
2018-12-01T05:00:11.998Z,1009.13
2018-12-01T05:01:21.699Z,1009.1
2018-12-01T05:02:31.140Z,1009.06
2018-12-01T05:03:40.324Z,1009.05
2018-12-01T05:04:50.266Z,1009.05
2018-12-01T05:05:59.942Z,1009.07
2018-12-01T05:07:09.891Z,1009.06
2018-12-01T05:08:19.837Z,1009.05
2018-12-01T05:09:29.270Z,1009.05
2018-12-01T05:10:38.945Z,1009.05
2018-12-01T05:11:48.886Z,1009.05
2018-12-01T05:12:58.819Z,1009.06
2018-12-01T05:14:08.502Z,1009.06
2018-12-01T05:15:18.439Z,1009.12
2018-12-01T05:16:28.172Z,1009.1
2018-12-01T05:17:38.097Z,1009.13
2018-12-01T05:18:48.027Z,1009.14
2018-12-01T05:19:57.988Z,1009.03
2018-12-01T05:21:07.920Z,1009.1
2018-12-01T05:22:17.604Z,1009.13
2018-12-01T05:23:27.294Z,1009.16
2018-12-01T05:24:36.985Z,1009.16
2018-12-01T05:25:46.668Z,1009.21
2018-12-01T05:26:56.379Z,1009.21
2018-12-01T05:28:05.805Z,1009.16
2018-12-01T05:29:15.738Z,1009.15
2018-12-01T05:30:25.671Z,1009.07
2018-12-01T05:31:35.356Z,1009.07
2018-12-01T05:32:45.051Z,1009.04
2018-12-01T05:33:54.993Z,1009.05
2018-12-01T05:35:04.938Z,1009.03
2018-12-01T05:36:14.879Z,1009.02
2018-12-01T05:37:24.814Z,1008.97
2018-12-01T05:38:34.508Z,1008.98
2018-12-01T05:39:44.445Z,1009.07
2018-12-01T05:40:54.135Z,1009.08
2018-12-01T05:42:03.820Z,1009.04
2018-12-01T05:43:13.748Z,1009.07
2018-12-01T05:44:23.692Z,1009.1
2018-12-01T05:45:33.670Z,1009.08
2018-12-01T05:46:43.363Z,1009
2018-12-01T05:47:53.312Z,1009.04
2018-12-01T05:49:03.008Z,1009.03
2018-12-01T05:50:12.199Z,1009.06
2018-12-01T05:51:21.651Z,1009.05
2018-12-01T05:52:31.588Z,1009.12
2018-12-01T05:53:41.029Z,1009.11
2018-12-01T05:54:50.462Z,1009.1
2018-12-01T05:56:00.142Z,1009.12
2018-12-01T05:57:10.082Z,1009.13
2018-12-01T05:58:19.766Z,1009.06
2018-12-01T05:59:29.447Z,1009.14
2018-12-01T06:00:39.149Z,1009.09
2018-12-01T06:01:48.829Z,1009.14
2018-12-01T06:02:58.783Z,1009.13
2018-12-01T06:04:08.733Z,1009.09
2018-12-01T06:05:18.698Z,1009.16
2018-12-01T06:06:28.639Z,1009.17
2018-12-01T06:07:38.321Z,1009.21
2018-12-01T06:08:48.017Z,1009.2
2018-12-01T06:09:57.943Z,1009.24
2018-12-01T06:11:07.632Z,1009.21
2018-12-01T06:12:17.568Z,1009.17
2018-12-01T06:13:27.258Z,1009.22
2018-12-01T06:14:36.945Z,1009.24
2018-12-01T06:15:46.659Z,1009.2
2018-12-01T06:16:56.609Z,1009.18
2018-12-01T06:18:06.057Z,1009.25
2018-12-01T06:19:16.000Z,1009.25
2018-12-01T06:20:25.940Z,1009.26
2018-12-01T06:21:35.637Z,1009.3
2018-12-01T06:22:45.585Z,1009.25
2018-12-01T06:23:55.539Z,1009.26
2018-12-01T06:25:05.488Z,1009.25
2018-12-01T06:26:15.178Z,1009.26
2018-12-01T06:27:25.122Z,1009.26
2018-12-01T06:28:34.820Z,1009.29
2018-12-01T06:29:44.284Z,1009.22
2018-12-01T06:30:53.974Z,1009.2
2018-12-01T06:32:03.916Z,1009.15
2018-12-01T06:33:13.612Z,1009.18
2018-12-01T06:34:23.070Z,1009.19
2018-12-01T06:35:33.003Z,1009.16
2018-12-01T06:36:42.693Z,1009.18
2018-12-01T06:37:52.442Z,1009.24
2018-12-01T06:39:02.123Z,1009.23
2018-12-01T06:40:12.190Z,1009.23
2018-12-01T06:41:21.906Z,1009.26
2018-12-01T06:42:31.350Z,1009.24
2018-12-01T06:43:41.064Z,1009.26
2018-12-01T06:44:51.000Z,1009.33
2018-12-01T06:46:00.432Z,1009.32
2018-12-01T06:47:10.372Z,1009.34
2018-12-01T06:48:20.326Z,1009.36
2018-12-01T06:49:30.267Z,1009.39
2018-12-01T06:50:40.208Z,1009.42
2018-12-01T06:51:49.640Z,1009.44
2018-12-01T06:52:59.570Z,1009.48
2018-12-01T06:54:08.774Z,1009.42
2018-12-01T06:55:18.729Z,1009.5
2018-12-01T06:56:28.670Z,1009.45
2018-12-01T06:57:38.370Z,1009.52
2018-12-01T06:58:48.058Z,1009.53
2018-12-01T06:59:57.743Z,1009.57
2018-12-01T07:01:07.681Z,1009.58
2018-12-01T07:02:17.135Z,1009.58
2018-12-01T07:03:26.821Z,1009.54
2018-12-01T07:04:36.511Z,1009.58
2018-12-01T07:05:46.205Z,1009.52
2018-12-01T07:06:55.896Z,1009.55
2018-12-01T07:08:05.833Z,1009.5
2018-12-01T07:09:15.786Z,1009.52
2018-12-01T07:10:25.736Z,1009.56
2018-12-01T07:11:35.451Z,1009.57
2018-12-01T07:12:45.409Z,1009.54
2018-12-01T07:13:54.869Z,1009.51
2018-12-01T07:15:04.571Z,1009.54
2018-12-01T07:16:14.524Z,1009.53
2018-12-01T07:17:24.225Z,1009.52
2018-12-01T07:18:33.918Z,1009.54
2018-12-01T07:19:43.593Z,1009.54
2018-12-01T07:20:53.281Z,1009.52
2018-12-01T07:22:03.231Z,1009.53
2018-12-01T07:23:12.917Z,1009.51
2018-12-01T07:24:22.863Z,1009.54
2018-12-01T07:25:32.556Z,1009.51
2018-12-01T07:26:42.499Z,1009.55
2018-12-01T07:27:52.196Z,1009.52
2018-12-01T07:29:01.653Z,1009.57
2018-12-01T07:30:11.585Z,1009.52
2018-12-01T07:31:21.298Z,1009.56
2018-12-01T07:32:31.236Z,1009.54
2018-12-01T07:33:41.184Z,1009.51
2018-12-01T07:34:50.875Z,1009.55
2018-12-01T07:36:00.825Z,1009.56
2018-12-01T07:37:10.503Z,1009.59
2018-12-01T07:38:19.960Z,1009.57
2018-12-01T07:39:29.402Z,1009.59
2018-12-01T07:40:39.105Z,1009.6
2018-12-01T07:41:49.055Z,1009.61
2018-12-01T07:42:58.985Z,1009.61
2018-12-01T07:44:08.926Z,1009.62
2018-12-01T07:45:18.636Z,1009.61
2018-12-01T07:46:28.340Z,1009.65
2018-12-01T07:47:38.035Z,1009.61
2018-12-01T07:48:47.979Z,1009.67
2018-12-01T07:49:57.966Z,1009.64
2018-12-01T07:51:07.918Z,1009.57
2018-12-01T07:52:17.606Z,1009.57
2018-12-01T07:53:27.306Z,1009.62
2018-12-01T07:54:37.247Z,1009.64
2018-12-01T07:55:46.933Z,1009.61
2018-12-01T07:56:56.873Z,1009.63
2018-12-01T07:58:06.567Z,1009.64
2018-12-01T07:59:16.506Z,1009.72
2018-12-01T08:00:26.440Z,1009.68
2018-12-01T08:01:36.393Z,1009.69
2018-12-01T08:02:46.342Z,1009.65
2018-12-01T08:03:56.302Z,1009.69
2018-12-01T08:05:06.235Z,1009.69
2018-12-01T08:06:15.671Z,1009.73
2018-12-01T08:07:25.386Z,1009.67
2018-12-01T08:08:35.103Z,1009.72
2018-12-01T08:09:44.538Z,1009.66
2018-12-01T08:10:54.471Z,1009.61
2018-12-01T08:12:04.410Z,1009.64
2018-12-01T08:13:14.342Z,1009.64
2018-12-01T08:14:24.289Z,1009.63
2018-12-01T08:15:33.979Z,1009.68
2018-12-01T08:16:43.414Z,1009.67
2018-12-01T08:17:53.362Z,1009.67
2018-12-01T08:19:03.047Z,1009.72
2018-12-01T08:20:12.746Z,1009.74
2018-12-01T08:21:22.447Z,1009.77
2018-12-01T08:22:32.392Z,1009.74
2018-12-01T08:23:42.369Z,1009.74
2018-12-01T08:24:52.304Z,1009.72
2018-12-01T08:26:01.990Z,1009.75
2018-12-01T08:27:11.912Z,1009.69
2018-12-01T08:28:21.613Z,1009.7
2018-12-01T08:29:31.294Z,1009.68
2018-12-01T08:30:41.234Z,1009.67
2018-12-01T08:31:50.924Z,1009.65
2018-12-01T08:33:00.361Z,1009.64
2018-12-01T08:34:10.062Z,1009.64
2018-12-01T08:35:19.508Z,1009.65
2018-12-01T08:36:29.200Z,1009.66
2018-12-01T08:37:39.165Z,1009.67
2018-12-01T08:38:48.851Z,1009.67
2018-12-01T08:39:58.806Z,1009.64
2018-12-01T08:41:08.249Z,1009.7
2018-12-01T08:42:18.200Z,1009.68
2018-12-01T08:43:27.881Z,1009.74
2018-12-01T08:44:37.567Z,1009.63
2018-12-01T08:45:47.525Z,1009.64
2018-12-01T08:46:57.226Z,1009.64
2018-12-01T08:48:07.176Z,1009.7
2018-12-01T08:49:16.872Z,1009.73
2018-12-01T08:50:26.824Z,1009.71
2018-12-01T08:51:36.785Z,1009.7
2018-12-01T08:52:46.726Z,1009.68
2018-12-01T08:53:56.444Z,1009.66
2018-12-01T08:55:05.892Z,1009.65
2018-12-01T08:56:15.331Z,1009.68
2018-12-01T08:57:25.033Z,1009.64
2018-12-01T08:58:34.981Z,1009.64
2018-12-01T08:59:44.663Z,1009.63
2018-12-01T09:00:54.614Z,1009.65
2018-12-01T09:02:04.303Z,1009.65
2018-12-01T09:03:14.232Z,1009.67
2018-12-01T09:04:23.926Z,1009.68
2018-12-01T09:05:33.866Z,1009.69
2018-12-01T09:06:43.546Z,1009.74
2018-12-01T09:07:53.243Z,1009.71
2018-12-01T09:09:03.180Z,1009.75
2018-12-01T09:10:12.862Z,1009.72
2018-12-01T09:11:22.835Z,1009.8
2018-12-01T09:12:32.793Z,1009.77
2018-12-01T09:13:42.500Z,1009.85
2018-12-01T09:14:52.470Z,1009.85
2018-12-01T09:16:02.168Z,1009.89
2018-12-01T09:17:12.116Z,1009.83
2018-12-01T09:18:21.819Z,1009.87
2018-12-01T09:19:31.773Z,1009.88
2018-12-01T09:20:41.722Z,1009.91
2018-12-01T09:21:51.680Z,1009.89
2018-12-01T09:23:01.624Z,1009.9
2018-12-01T09:24:11.573Z,1009.87
2018-12-01T09:25:21.268Z,1009.9
2018-12-01T09:26:30.968Z,1009.86
2018-12-01T09:27:40.676Z,1009.84
2018-12-01T09:28:50.378Z,1009.81
2018-12-01T09:30:00.081Z,1009.77
2018-12-01T09:31:09.778Z,1009.76
2018-12-01T09:32:19.458Z,1009.8
2018-12-01T09:33:29.145Z,1009.75
2018-12-01T09:34:38.843Z,1009.69
2018-12-01T09:35:48.782Z,1009.71
2018-12-01T09:36:57.974Z,1009.71
2018-12-01T09:38:07.936Z,1009.69
2018-12-01T09:39:17.622Z,1009.71
2018-12-01T09:40:27.585Z,1009.68
2018-12-01T09:41:37.548Z,1009.69
2018-12-01T09:42:47.481Z,1009.72
2018-12-01T09:43:56.948Z,1009.7
2018-12-01T09:45:06.910Z,1009.76
2018-12-01T09:46:16.592Z,1009.72
2018-12-01T09:47:26.532Z,1009.73
2018-12-01T09:48:36.505Z,1009.72
2018-12-01T09:49:46.195Z,1009.7
2018-12-01T09:50:55.873Z,1009.72
2018-12-01T09:52:05.573Z,1009.69
2018-12-01T09:53:15.512Z,1009.67
2018-12-01T09:54:25.216Z,1009.68
2018-12-01T09:55:35.180Z,1009.62
2018-12-01T09:56:44.865Z,1009.61
2018-12-01T09:57:54.809Z,1009.61
2018-12-01T09:59:04.760Z,1009.57
2018-12-01T10:00:14.707Z,1009.55
2018-12-01T10:01:24.388Z,1009.59
2018-12-01T10:02:34.087Z,1009.57
2018-12-01T10:03:44.035Z,1009.54
2018-12-01T10:04:54.538Z,1009.5
2018-12-01T10:06:04.583Z,1009.47
2018-12-01T10:07:14.549Z,1009.44
2018-12-01T10:08:24.235Z,1009.5
2018-12-01T10:09:33.946Z,1009.44
2018-12-01T10:10:43.912Z,1009.48
2018-12-01T10:11:53.844Z,1009.4
2018-12-01T10:13:03.797Z,1009.42
2018-12-01T10:14:13.490Z,1009.4
2018-12-01T10:15:23.916Z,1009.37
2018-12-01T10:16:33.707Z,1009.38
2018-12-01T10:17:43.684Z,1009.39
2018-12-01T10:18:56.431Z,1009.36
2018-12-01T10:20:06.292Z,1009.4
2018-12-01T10:21:15.739Z,1009.37
2018-12-01T10:22:25.700Z,1009.37
2018-12-01T10:23:35.407Z,1009.32
2018-12-01T10:24:45.365Z,1009.3
2018-12-01T10:25:55.347Z,1009.29
2018-12-01T10:27:05.498Z,1009.32
2018-12-01T10:28:15.446Z,1009.19
2018-12-01T10:29:25.394Z,1009.22
2018-12-01T10:30:35.075Z,1009.16
2018-12-01T10:31:45.027Z,1009.17
2018-12-01T10:32:54.973Z,1009.16
2018-12-01T10:34:04.987Z,1009.18
2018-12-01T10:35:14.694Z,1009.2
2018-12-01T10:36:24.407Z,1009.23
2018-12-01T10:37:34.344Z,1009.22
2018-12-01T10:38:44.293Z,1009.24
2018-12-01T10:39:54.251Z,1009.23
2018-12-01T10:41:03.946Z,1009.19
2018-12-01T10:42:13.893Z,1009.2
2018-12-01T10:43:23.839Z,1009.17
2018-12-01T10:44:33.535Z,1009.15
2018-12-01T10:45:43.255Z,1009.19
2018-12-01T10:46:53.221Z,1009.17
2018-12-01T10:48:03.179Z,1009.11
2018-12-01T10:49:13.123Z,1009.12
2018-12-01T10:50:23.107Z,1009.07
2018-12-01T10:51:32.814Z,1009.06
2018-12-01T10:52:42.772Z,1009.08
2018-12-01T10:53:52.490Z,1009.05
2018-12-01T10:55:02.181Z,1009.07
2018-12-01T10:56:12.125Z,1009.05
2018-12-01T10:57:22.072Z,1009.05
2018-12-01T10:58:31.805Z,1009.02
2018-12-01T10:59:41.253Z,1008.93
2018-12-01T11:00:51.193Z,1008.94
2018-12-01T11:02:01.150Z,1008.94
2018-12-01T11:03:10.851Z,1008.93
2018-12-01T11:04:20.550Z,1008.91
2018-12-01T11:05:30.506Z,1008.95
2018-12-01T11:06:40.467Z,1008.9
2018-12-01T11:07:50.458Z,1008.92
2018-12-01T11:09:00.188Z,1008.89
2018-12-01T11:10:10.133Z,1008.89
2018-12-01T11:11:19.857Z,1008.89
2018-12-01T11:12:29.823Z,1008.87
2018-12-01T11:13:39.259Z,1008.85
2018-12-01T11:14:49.215Z,1008.91
2018-12-01T11:15:59.159Z,1008.88
2018-12-01T11:17:08.855Z,1008.93
2018-12-01T11:18:18.542Z,1008.96
2018-12-01T11:19:28.515Z,1008.93
2018-12-01T11:20:38.464Z,1008.91
2018-12-01T11:21:48.236Z,1008.9
2018-12-01T11:22:58.291Z,1008.91
2018-12-01T11:24:07.524Z,1008.87
2018-12-01T11:25:17.481Z,1008.88
2018-12-01T11:26:27.440Z,1008.9
2018-12-01T11:27:37.381Z,1009.03
2018-12-01T11:28:46.840Z,1008.99
2018-12-01T11:29:56.546Z,1009.02
2018-12-01T11:31:06.254Z,1009.01
2018-12-01T11:32:16.215Z,1009.05
2018-12-01T11:33:25.920Z,1009.04
2018-12-01T11:34:35.880Z,1009.07
2018-12-01T11:35:45.573Z,1009.03
2018-12-01T11:36:55.308Z,1009.02
2018-12-01T11:38:05.251Z,1009.06
2018-12-01T11:39:15.197Z,1009.04
2018-12-01T11:40:25.169Z,1008.99
2018-12-01T11:41:35.114Z,1008.97
2018-12-01T11:42:45.068Z,1008.95
2018-12-01T11:43:55.020Z,1008.93
2018-12-01T11:45:04.726Z,1008.91
2018-12-01T11:46:14.435Z,1008.94
2018-12-01T11:47:24.386Z,1008.98
2018-12-01T11:48:34.355Z,1008.99
2018-12-01T11:49:44.297Z,1009.01
2018-12-01T11:50:54.272Z,1009.06
2018-12-01T11:52:04.218Z,1009.07
2018-12-01T11:53:14.155Z,1009.04
2018-12-01T11:54:24.104Z,1009
2018-12-01T11:55:33.805Z,1009.07
2018-12-01T11:56:43.764Z,1009.12
2018-12-01T11:57:53.710Z,1009.12
2018-12-01T11:59:03.164Z,1009.08
2018-12-01T12:00:12.897Z,1009.05
2018-12-01T12:01:22.871Z,1009.13
2018-12-01T12:02:32.842Z,1009.16
2018-12-01T12:03:42.790Z,1009.19
2018-12-01T12:04:52.513Z,1009.2
2018-12-01T12:06:02.460Z,1009.23
2018-12-01T12:07:12.414Z,1009.22
2018-12-01T12:08:22.363Z,1009.23
2018-12-01T12:09:32.057Z,1009.26
2018-12-01T12:10:41.515Z,1009.22
2018-12-01T12:11:51.457Z,1009.24
2018-12-01T12:13:01.418Z,1009.18
2018-12-01T12:14:11.375Z,1009.15
2018-12-01T12:15:21.344Z,1009.16
2018-12-01T12:16:31.305Z,1009.15
2018-12-01T12:17:40.991Z,1009.17
2018-12-01T12:18:50.949Z,1009.14
2018-12-01T12:20:00.408Z,1009.19
2018-12-01T12:21:10.365Z,1009.22
2018-12-01T12:22:20.319Z,1009.23
2018-12-01T12:23:30.267Z,1009.2
2018-12-01T12:24:40.223Z,1009.18
2018-12-01T12:25:49.168Z,1009.14
2018-12-01T12:26:59.137Z,1009.2
2018-12-01T12:28:08.846Z,1009.19
2018-12-01T12:29:18.815Z,1009.19
2018-12-01T12:30:28.535Z,1009.13
2018-12-01T12:31:38.242Z,1009.17
2018-12-01T12:32:48.187Z,1009.17
2018-12-01T12:33:58.132Z,1009.22
2018-12-01T12:35:08.105Z,1009.19
2018-12-01T12:36:17.843Z,1009.17
2018-12-01T12:37:27.540Z,1009.21
2018-12-01T12:38:37.487Z,1009.2
2018-12-01T12:39:47.439Z,1009.17
2018-12-01T12:40:57.381Z,1009.18
2018-12-01T12:42:07.103Z,1009.21
2018-12-01T12:43:17.061Z,1009.22
2018-12-01T12:44:27.023Z,1009.2
2018-12-01T12:45:36.971Z,1009.21
2018-12-01T12:46:46.944Z,1009.17
2018-12-01T12:47:56.649Z,1009.16
2018-12-01T12:49:06.560Z,1009.18
2018-12-01T12:50:16.011Z,1009.21
2018-12-01T12:51:25.987Z,1009.18
2018-12-01T12:52:35.700Z,1009.19
2018-12-01T12:53:46.304Z,1009.16
2018-12-01T12:54:55.746Z,1009.19
2018-12-01T12:56:05.201Z,1009.17
2018-12-01T12:57:15.186Z,1009.21
2018-12-01T12:58:24.876Z,1009.19
2018-12-01T12:59:34.842Z,1009.18
2018-12-01T13:00:44.787Z,1009.24
2018-12-01T13:01:54.741Z,1009.25
2018-12-01T13:03:04.696Z,1009.17
2018-12-01T13:04:14.660Z,1009.17
2018-12-01T13:05:24.605Z,1009.14
2018-12-01T13:06:34.103Z,1009.18
2018-12-01T13:07:44.047Z,1009.15
2018-12-01T13:08:53.775Z,1009.21
2018-12-01T13:10:03.731Z,1009.14
2018-12-01T13:11:13.422Z,1009.18
2018-12-01T13:12:23.423Z,1009.15
2018-12-01T13:13:33.107Z,1009.22
2018-12-01T13:14:43.057Z,1009.18
2018-12-01T13:15:53.015Z,1009.1
2018-12-01T13:17:02.718Z,1009.18
2018-12-01T13:18:12.662Z,1009.15
2018-12-01T13:19:22.613Z,1009.18
2018-12-01T13:20:32.561Z,1009.16
2018-12-01T13:21:42.252Z,1009.23
2018-12-01T13:22:51.951Z,1009.24
2018-12-01T13:24:01.897Z,1009.25
2018-12-01T13:25:11.341Z,1009.24
2018-12-01T13:26:21.281Z,1009.2
2018-12-01T13:27:31.226Z,1009.21
2018-12-01T13:28:41.185Z,1009.25
2018-12-01T13:29:51.140Z,1009.23
2018-12-01T13:31:01.098Z,1009.19
2018-12-01T13:32:11.050Z,1009.26
2018-12-01T13:33:20.751Z,1009.2
2018-12-01T13:34:30.707Z,1009.19
2018-12-01T13:35:40.715Z,1009.18
2018-12-01T13:36:50.656Z,1009.19
2018-12-01T13:38:00.616Z,1009.17
2018-12-01T13:39:10.316Z,1009.21
2018-12-01T13:40:19.965Z,1009.17
2018-12-01T13:41:29.935Z,1009.15
2018-12-01T13:42:39.908Z,1009.12
2018-12-01T13:43:49.642Z,1009.08
2018-12-01T13:44:59.339Z,1009.05
2018-12-01T13:46:09.290Z,1009.05
2018-12-01T13:47:19.241Z,1009.06
2018-12-01T13:48:29.191Z,1009.02
2018-12-01T13:49:39.146Z,1009.02
2018-12-01T13:50:48.842Z,1008.97
2018-12-01T13:51:58.539Z,1008.99
2018-12-01T13:53:08.227Z,1008.92
2018-12-01T13:54:18.179Z,1008.96
2018-12-01T13:55:28.144Z,1008.96
2018-12-01T13:56:38.091Z,1008.94
2018-12-01T13:57:48.022Z,1008.93
2018-12-01T13:58:57.480Z,1008.93
2018-12-01T14:00:07.455Z,1008.95
2018-12-01T14:01:17.394Z,1008.95
2018-12-01T14:02:27.340Z,1008.9
2018-12-01T14:03:37.021Z,1008.89
2018-12-01T14:04:46.718Z,1008.86
2018-12-01T14:05:56.403Z,1008.81
2018-12-01T14:07:06.360Z,1008.83
2018-12-01T14:08:15.796Z,1008.81